Amboy, Indiana
Current Conditions -  °F | °C
As of 4:35 PM on Friday 28 Nov 2014 (Local Time) from KOKK Reporting Station
Clear Clear  
Wind Chill: 18°   Ceiling: Unl
Heat Index: 30°   Visibility: 10mi
Dew Point: 21°   Wind: 20mph
Humidity: 69%   Direction: 150°SSE
Pressure: 30.08"   Gusts: 24mph
Location:  40.6°N, 85.93°W
Report Text: KOKK 282135Z AUTO 15017G21KT 10SM CLR M01/M06 A3008 RMK AO1
Loading
Personal Weather Stations






























Interactive Weather Map New forecast layout! Learn more

10-Day Weather Forecast

Advertisements
Track Severe Weather on mobile